createdAt,value
2023-10-23T00:01:09.925Z,3.20
2023-10-23T00:03:38.209Z,2.83
2023-10-23T00:06:06.349Z,2.47
2023-10-23T00:08:34.707Z,2.70
2023-10-23T00:11:02.798Z,2.83
2023-10-23T00:13:31.073Z,2.30
2023-10-23T00:16:00.551Z,2.57
2023-10-23T00:18:28.616Z,2.83
2023-10-23T00:20:57.568Z,2.37
2023-10-23T00:23:25.296Z,2.47
2023-10-23T00:25:53.078Z,3.10
2023-10-23T00:28:20.838Z,2.53
2023-10-23T00:30:49.099Z,2.47
2023-10-23T00:33:18.353Z,2.37
2023-10-23T00:35:46.231Z,2.40
2023-10-23T00:38:14.158Z,2.33
2023-10-23T00:40:42.033Z,2.60
2023-10-23T00:43:14.385Z,2.90
2023-10-23T00:45:44.803Z,2.60
2023-10-23T00:48:12.846Z,2.40
2023-10-23T00:50:42.440Z,2.60
2023-10-23T00:53:11.018Z,2.40
2023-10-23T00:55:39.014Z,2.50
2023-10-23T00:58:06.800Z,2.57
2023-10-23T01:00:34.667Z,2.37
2023-10-23T01:03:02.574Z,2.23
2023-10-23T01:05:30.556Z,2.17
2023-10-23T01:08:00.030Z,2.30
2023-10-23T01:10:28.563Z,2.67
2023-10-23T01:12:57.365Z,2.50
2023-10-23T01:15:25.916Z,2.53
2023-10-23T01:17:53.928Z,2.57
2023-10-23T01:20:21.900Z,2.53
2023-10-23T01:22:49.777Z,2.40
2023-10-23T01:25:18.915Z,2.30
2023-10-23T01:27:47.279Z,2.10
2023-10-23T01:30:15.272Z,2.10
2023-10-23T01:32:43.407Z,2.27
2023-10-23T01:35:12.132Z,2.23
2023-10-23T01:37:41.566Z,2.37
2023-10-23T01:40:10.686Z,2.30
2023-10-23T01:42:40.058Z,2.20
2023-10-23T01:45:09.647Z,2.10
2023-10-23T01:47:37.954Z,2.43
2023-10-23T01:50:06.728Z,2.43
2023-10-23T01:52:35.280Z,2.07
2023-10-23T01:55:03.232Z,2.33
2023-10-23T01:57:31.571Z,2.30
2023-10-23T02:00:05.465Z,2.00
2023-10-23T02:02:33.382Z,2.27
2023-10-23T02:05:01.954Z,1.90
2023-10-23T02:07:30.085Z,2.17
2023-10-23T02:09:58.324Z,1.90
2023-10-23T02:12:27.133Z,1.90
2023-10-23T02:14:56.243Z,1.90
2023-10-23T02:17:26.197Z,2.00
2023-10-23T02:19:54.149Z,2.47
2023-10-23T02:22:22.209Z,2.00
2023-10-23T02:24:50.178Z,2.30
2023-10-23T02:27:18.408Z,1.83
2023-10-23T02:29:46.386Z,1.83
2023-10-23T02:32:15.847Z,2.00
2023-10-23T02:34:45.316Z,1.77
2023-10-23T02:37:13.729Z,1.90
2023-10-23T02:39:42.456Z,2.20
2023-10-23T02:42:10.546Z,1.93
2023-10-23T02:44:39.057Z,1.70
2023-10-23T02:47:07.344Z,2.30
2023-10-23T02:49:35.407Z,1.77
2023-10-23T02:52:05.503Z,2.00
2023-10-23T02:54:33.621Z,2.20
2023-10-23T02:57:01.980Z,2.17
2023-10-23T02:59:29.829Z,1.70
2023-10-23T03:01:58.372Z,1.60
2023-10-23T03:04:26.356Z,2.10
2023-10-23T03:06:55.777Z,2.00
2023-10-23T03:09:25.638Z,1.73
2023-10-23T03:11:53.664Z,2.40
2023-10-23T03:14:21.836Z,2.20
2023-10-23T03:16:49.762Z,1.80
2023-10-23T03:19:17.580Z,2.10
2023-10-23T03:21:45.437Z,2.20
2023-10-23T03:24:13.410Z,2.10
2023-10-23T03:26:43.249Z,2.13
2023-10-23T03:29:11.069Z,2.20
2023-10-23T03:31:39.406Z,2.43
2023-10-23T03:34:07.453Z,1.90
2023-10-23T03:36:35.655Z,1.87
2023-10-23T03:39:03.698Z,2.43
2023-10-23T03:41:31.404Z,1.80
2023-10-23T03:44:02.606Z,2.00
2023-10-23T03:46:30.730Z,2.00
2023-10-23T03:48:59.494Z,1.93
2023-10-23T03:51:27.517Z,1.70
2023-10-23T03:53:55.989Z,1.70
2023-10-23T03:56:23.897Z,2.07
2023-10-23T03:58:51.853Z,1.80
2023-10-23T04:01:21.863Z,1.80
2023-10-23T04:03:49.964Z,2.07
2023-10-23T04:06:18.474Z,2.00
2023-10-23T04:08:46.596Z,1.50
2023-10-23T04:11:15.231Z,1.50
2023-10-23T04:13:43.589Z,1.80
2023-10-23T04:16:11.694Z,2.03
2023-10-23T04:18:41.273Z,2.33
2023-10-23T04:21:10.854Z,1.80
2023-10-23T04:23:39.078Z,2.00
2023-10-23T04:26:07.046Z,1.80
2023-10-23T04:28:36.011Z,1.70
2023-10-23T04:31:04.888Z,1.50
2023-10-23T04:33:33.133Z,1.73
2023-10-23T04:36:03.054Z,1.80
2023-10-23T04:38:31.062Z,1.70
2023-10-23T04:40:59.058Z,1.90
2023-10-23T04:43:27.117Z,1.73
2023-10-23T04:45:56.554Z,1.70
2023-10-23T04:48:25.081Z,1.80
2023-10-23T04:50:54.202Z,1.90
2023-10-23T04:53:23.552Z,1.77
2023-10-23T04:55:51.637Z,1.73
2023-10-23T04:58:19.762Z,2.17
2023-10-23T05:00:47.826Z,1.90
2023-10-23T05:03:16.270Z,2.13
2023-10-23T05:05:49.121Z,1.90
2023-10-23T05:08:17.517Z,1.70
2023-10-23T05:10:46.838Z,1.90
2023-10-23T05:13:14.772Z,1.83
2023-10-23T05:15:42.854Z,1.90
2023-10-23T05:18:10.945Z,1.50
2023-10-23T05:20:38.995Z,1.80
2023-10-23T05:23:06.997Z,1.80
2023-10-23T05:25:37.790Z,1.77
2023-10-23T05:28:07.476Z,1.80
2023-10-23T05:30:35.557Z,1.80
2023-10-23T05:33:04.875Z,1.70
2023-10-23T05:35:32.998Z,1.90
2023-10-23T05:38:01.672Z,1.87
2023-10-23T05:40:29.701Z,1.90
2023-10-23T05:42:57.544Z,1.90
2023-10-23T05:45:27.299Z,1.97
2023-10-23T05:47:55.568Z,1.67
2023-10-23T05:50:23.814Z,1.73
2023-10-23T05:52:52.077Z,1.63
2023-10-23T05:55:22.376Z,1.70
2023-10-23T05:57:51.186Z,1.67
2023-10-23T06:00:20.318Z,1.40
2023-10-23T06:02:49.703Z,1.83
2023-10-23T06:05:17.877Z,1.90
2023-10-23T06:07:46.387Z,1.80
2023-10-23T06:10:14.602Z,1.80
2023-10-23T06:12:43.247Z,1.60
2023-10-23T06:15:11.829Z,1.80
2023-10-23T06:17:39.826Z,1.50
2023-10-23T06:20:11.383Z,1.70
2023-10-23T06:22:39.492Z,1.93
2023-10-23T06:25:09.524Z,1.70
2023-10-23T06:27:37.945Z,1.83
2023-10-23T06:30:07.344Z,1.30
2023-10-23T06:32:36.140Z,1.60
2023-10-23T06:35:05.322Z,1.90
2023-10-23T06:37:35.512Z,1.70
2023-10-23T06:40:04.077Z,1.67
2023-10-23T06:42:32.055Z,1.83
2023-10-23T06:45:00.784Z,1.70
2023-10-23T06:47:28.872Z,1.60
2023-10-23T06:49:56.768Z,1.80
2023-10-23T06:52:25.118Z,1.60
2023-10-23T06:54:54.611Z,1.70
2023-10-23T06:57:22.694Z,1.60
2023-10-23T06:59:51.567Z,1.80
2023-10-23T07:02:19.580Z,1.50
2023-10-23T07:04:48.166Z,1.50
2023-10-23T07:07:28.739Z,1.80
2023-10-23T07:10:01.600Z,1.60
2023-10-23T07:12:29.790Z,1.80
2023-10-23T07:14:57.940Z,2.37
2023-10-23T07:17:25.781Z,2.77
2023-10-23T07:19:53.619Z,3.50
2023-10-23T07:22:22.179Z,4.20
2023-10-23T07:24:50.843Z,4.50
2023-10-23T07:27:21.417Z,5.00
2023-10-23T07:29:49.457Z,4.97
2023-10-23T07:32:17.922Z,5.17
2023-10-23T07:34:46.408Z,5.80
2023-10-23T07:37:19.597Z,6.40
2023-10-23T07:39:49.546Z,7.50
2023-10-23T07:42:20.166Z,7.53
2023-10-23T07:44:48.208Z,7.63
2023-10-23T07:47:17.155Z,7.47
2023-10-23T07:49:46.511Z,8.50
2023-10-23T07:52:14.591Z,9.60
2023-10-23T07:54:42.640Z,8.07
2023-10-23T07:57:10.744Z,9.43
2023-10-23T07:59:41.344Z,9.33
2023-10-23T08:02:09.556Z,9.70
2023-10-23T08:04:37.563Z,9.03
2023-10-23T08:07:05.819Z,11.07
2023-10-23T08:09:33.564Z,15.13
2023-10-23T08:12:01.301Z,13.37
2023-10-23T08:14:29.169Z,10.90
2023-10-23T08:16:58.368Z,11.90
2023-10-23T08:19:26.422Z,13.73
2023-10-23T08:21:54.426Z,13.20
2023-10-23T08:24:22.293Z,12.83
2023-10-23T08:26:51.551Z,13.30
2023-10-23T08:29:20.037Z,17.43
2023-10-23T08:31:48.201Z,24.27
2023-10-23T08:34:22.277Z,27.17
2023-10-23T08:36:50.686Z,24.13
2023-10-23T08:39:20.718Z,19.13
2023-10-23T08:41:49.636Z,14.63
2023-10-23T08:44:17.771Z,12.70
2023-10-23T08:46:45.932Z,16.10
2023-10-23T08:49:16.649Z,13.17
2023-10-23T08:51:49.200Z,12.33
2023-10-23T08:54:19.813Z,12.57
2023-10-23T08:56:50.389Z,15.17
2023-10-23T08:59:18.553Z,12.60
2023-10-23T09:01:46.595Z,12.90
2023-10-23T09:04:14.756Z,14.93
2023-10-23T09:06:44.009Z,14.17
2023-10-23T09:09:14.089Z,13.20
2023-10-23T09:11:43.152Z,14.33
2023-10-23T09:14:12.225Z,12.23
2023-10-23T09:16:40.919Z,12.90
2023-10-23T09:19:09.107Z,10.17
2023-10-23T09:21:37.153Z,9.67
2023-10-23T09:24:05.681Z,9.20
2023-10-23T09:26:35.032Z,8.73
2023-10-23T09:29:02.900Z,9.03
2023-10-23T09:31:31.046Z,9.00
2023-10-23T09:34:00.160Z,8.73
2023-10-23T09:36:28.405Z,8.53
2023-10-23T09:38:59.963Z,9.53
2023-10-23T09:41:28.229Z,9.70
2023-10-23T09:43:58.959Z,9.37
2023-10-23T09:46:27.587Z,8.27
2023-10-23T09:49:00.860Z,9.27
2023-10-23T09:51:30.996Z,9.20
2023-10-23T09:54:00.778Z,8.70
2023-10-23T09:56:31.874Z,9.00
2023-10-23T09:59:04.771Z,8.90
2023-10-23T10:01:38.369Z,9.10
2023-10-23T10:04:17.788Z,9.67
2023-10-23T10:06:48.266Z,9.23
2023-10-23T10:09:16.141Z,9.13
2023-10-23T10:11:44.951Z,9.23
2023-10-23T10:14:14.193Z,8.50
2023-10-23T10:16:43.297Z,9.03
2023-10-23T10:19:13.759Z,8.37
2023-10-23T10:21:48.802Z,8.70
2023-10-23T10:24:23.122Z,8.93
2023-10-23T10:26:51.544Z,8.10
2023-10-23T10:29:25.060Z,8.53
2023-10-23T10:32:12.880Z,8.30
2023-10-23T10:34:56.549Z,8.43
2023-10-23T10:37:27.062Z,8.20
2023-10-23T10:40:06.404Z,8.40
2023-10-23T10:42:41.207Z,7.43
2023-10-23T10:45:18.122Z,7.60
2023-10-23T10:47:50.891Z,7.27
2023-10-23T10:50:37.579Z,7.80
2023-10-23T10:53:06.670Z,7.23
2023-10-23T10:55:34.930Z,7.43
2023-10-23T10:58:03.235Z,6.70
2023-10-23T11:00:34.108Z,7.10
2023-10-23T11:03:02.441Z,7.10
2023-10-23T11:05:30.798Z,7.63
2023-10-23T11:07:58.603Z,7.20
2023-10-23T11:10:26.842Z,7.20
2023-10-23T11:12:54.699Z,7.23
2023-10-23T11:15:22.836Z,6.57
2023-10-23T11:17:52.848Z,6.23
2023-10-23T11:20:20.766Z,6.20
2023-10-23T11:22:49.420Z,5.53
2023-10-23T11:25:18.851Z,6.43
2023-10-23T11:27:49.170Z,6.27
2023-10-23T11:30:17.723Z,5.43
2023-10-23T11:32:46.834Z,5.80
2023-10-23T11:35:16.142Z,5.43
2023-10-23T11:37:44.161Z,4.80
2023-10-23T11:40:12.829Z,5.27
2023-10-23T11:42:45.296Z,4.70
2023-10-23T11:45:13.826Z,5.27
2023-10-23T11:47:42.847Z,4.70
2023-10-23T11:50:12.475Z,4.50
2023-10-23T11:52:43.825Z,4.60
2023-10-23T11:55:13.362Z,4.63
2023-10-23T11:57:42.738Z,3.97
2023-10-23T12:00:13.779Z,4.07
2023-10-23T12:02:43.472Z,4.57
2023-10-23T12:05:13.595Z,4.70
2023-10-23T12:07:44.492Z,4.70
2023-10-23T12:10:12.760Z,4.37
2023-10-23T12:12:42.016Z,5.23
2023-10-23T12:15:10.597Z,4.10
2023-10-23T12:17:38.445Z,3.80
2023-10-23T12:20:09.554Z,4.27
2023-10-23T12:22:38.498Z,4.60
2023-10-23T12:25:10.132Z,4.33
2023-10-23T12:27:38.368Z,4.20
2023-10-23T12:30:09.420Z,4.00
2023-10-23T12:33:16.283Z,4.17
2023-10-23T12:35:28.976Z,4.30
2023-10-23T12:37:57.093Z,4.27
2023-10-23T12:40:30.270Z,3.43
2023-10-23T12:43:00.969Z,3.83
2023-10-23T12:45:29.012Z,4.10
2023-10-23T12:47:56.772Z,4.00
2023-10-23T12:50:24.571Z,3.90
2023-10-23T12:52:52.893Z,4.10
2023-10-23T12:55:22.173Z,4.30
2023-10-23T12:57:52.411Z,3.70
2023-10-23T13:00:20.647Z,4.20
2023-10-23T13:02:48.675Z,4.00
2023-10-23T13:05:17.090Z,4.03
2023-10-23T13:07:45.318Z,4.93
2023-10-23T13:10:15.541Z,4.63
2023-10-23T13:12:43.730Z,4.70
2023-10-23T13:15:13.359Z,4.60
2023-10-23T13:17:44.684Z,4.53
2023-10-23T13:20:53.968Z,5.20
2023-10-23T13:23:02.307Z,4.80
2023-10-23T13:25:31.562Z,5.47
2023-10-23T13:27:59.968Z,5.13
2023-10-23T13:30:29.633Z,5.50
2023-10-23T13:32:57.708Z,5.40
2023-10-23T13:35:25.745Z,5.30
2023-10-23T13:37:53.739Z,5.43
2023-10-23T13:40:21.851Z,6.20
2023-10-23T13:42:51.151Z,5.90
2023-10-23T13:45:19.345Z,5.60
2023-10-23T13:47:49.471Z,6.00
2023-10-23T13:50:17.528Z,6.57
2023-10-23T13:52:45.492Z,6.53
2023-10-23T13:55:14.001Z,6.60
2023-10-23T13:57:42.104Z,6.90
2023-10-23T14:00:12.533Z,6.50
2023-10-23T14:02:41.471Z,6.40
2023-10-23T14:05:12.075Z,7.00
2023-10-23T14:07:40.062Z,6.50
2023-10-23T14:10:09.003Z,7.40
2023-10-23T14:12:37.518Z,6.50
2023-10-23T14:15:08.793Z,7.57
2023-10-23T14:17:37.497Z,7.03
2023-10-23T14:20:06.837Z,7.27
2023-10-23T14:22:39.601Z,7.77
2023-10-23T14:25:09.196Z,7.23
2023-10-23T14:27:37.930Z,7.17
2023-10-23T14:30:08.655Z,7.40
2023-10-23T14:32:36.731Z,8.33
2023-10-23T14:35:05.965Z,7.40
2023-10-23T14:37:35.837Z,7.30
2023-10-23T14:40:04.108Z,7.60
2023-10-23T14:42:32.945Z,7.63
2023-10-23T14:45:01.031Z,7.40
2023-10-23T14:47:29.019Z,7.33
2023-10-23T14:49:57.204Z,7.67
2023-10-23T14:52:25.191Z,7.83
2023-10-23T14:54:57.669Z,8.00
2023-10-23T14:57:25.767Z,7.50
2023-10-23T14:59:53.713Z,7.57
2023-10-23T15:02:21.611Z,7.30
2023-10-23T15:04:49.540Z,7.77
2023-10-23T15:07:17.681Z,7.87
2023-10-23T15:09:50.961Z,7.60
2023-10-23T15:12:21.217Z,8.47
2023-10-23T15:14:52.350Z,7.87
2023-10-23T15:17:27.589Z,7.60
2023-10-23T15:19:56.729Z,7.90
2023-10-23T15:22:35.515Z,7.90
2023-10-23T15:25:18.999Z,8.60
2023-10-23T15:27:52.352Z,8.30
2023-10-23T15:30:29.097Z,8.27
2023-10-23T15:33:08.768Z,8.77
2023-10-23T15:35:40.300Z,8.70
2023-10-23T15:38:10.513Z,8.30
2023-10-23T15:40:38.622Z,7.70
2023-10-23T15:43:08.550Z,8.93
2023-10-23T15:45:39.658Z,8.70
2023-10-23T15:48:13.813Z,7.40
2023-10-23T15:50:45.218Z,7.80
2023-10-23T15:53:19.988Z,8.20
2023-10-23T15:55:52.729Z,8.23
2023-10-23T15:58:25.988Z,8.20
2023-10-23T16:01:00.369Z,7.77
2023-10-23T16:03:53.110Z,7.30
2023-10-23T16:06:26.293Z,7.20
2023-10-23T16:08:54.085Z,8.10
2023-10-23T16:11:25.382Z,7.57
2023-10-23T16:13:56.811Z,7.97
2023-10-23T16:16:28.432Z,8.30
2023-10-23T16:18:59.446Z,8.30
2023-10-23T16:21:34.447Z,7.50
2023-10-23T16:24:03.681Z,7.17
2023-10-23T16:26:32.995Z,7.23
2023-10-23T16:29:06.113Z,7.57
2023-10-23T16:31:35.035Z,7.30
2023-10-23T16:34:10.183Z,7.10
2023-10-23T16:36:40.647Z,7.17
2023-10-23T16:39:12.339Z,7.30
2023-10-23T16:41:41.058Z,7.10
2023-10-23T16:44:11.403Z,7.23
2023-10-23T16:46:40.223Z,7.13
2023-10-23T16:49:09.380Z,7.10
2023-10-23T16:51:37.654Z,7.33
2023-10-23T16:54:09.480Z,7.53
2023-10-23T16:56:38.313Z,6.67
2023-10-23T16:59:07.191Z,7.97
2023-10-23T17:01:39.764Z,6.97
2023-10-23T17:04:10.315Z,7.03
2023-10-23T17:06:38.810Z,6.73
2023-10-23T17:09:11.388Z,7.00
2023-10-23T17:11:39.861Z,7.30
2023-10-23T17:14:10.640Z,6.63
2023-10-23T17:16:40.235Z,6.83
2023-10-23T17:19:08.703Z,6.13
2023-10-23T17:21:36.821Z,7.50
2023-10-23T17:24:05.820Z,6.80
2023-10-23T17:26:37.026Z,6.50
2023-10-23T17:29:05.372Z,6.37
2023-10-23T17:31:34.374Z,7.30
2023-10-23T17:34:04.168Z,7.73
2023-10-23T17:36:35.775Z,7.83
2023-10-23T17:39:04.034Z,8.13
2023-10-23T17:41:32.050Z,8.37
2023-10-23T17:44:00.396Z,7.60
2023-10-23T17:46:29.692Z,8.27
2023-10-23T17:48:58.225Z,8.37
2023-10-23T17:51:28.939Z,7.90
2023-10-23T17:54:04.842Z,8.50
2023-10-23T17:56:36.676Z,8.23
2023-10-23T17:59:05.153Z,8.67
2023-10-23T18:01:33.593Z,8.10
2023-10-23T18:04:06.925Z,8.17
2023-10-23T18:06:38.090Z,8.03
2023-10-23T18:09:06.449Z,8.20
2023-10-23T18:11:34.699Z,7.97
2023-10-23T18:14:02.727Z,7.97
2023-10-23T18:16:30.813Z,7.77
2023-10-23T18:18:58.857Z,7.43
2023-10-23T18:21:27.422Z,8.60
2023-10-23T18:23:57.442Z,7.70
2023-10-23T18:26:26.457Z,7.00
2023-10-23T18:28:54.590Z,6.77
2023-10-23T18:31:22.591Z,6.73
2023-10-23T18:33:50.990Z,6.57
2023-10-23T18:36:18.923Z,6.90
2023-10-23T18:38:47.911Z,7.00
2023-10-23T18:41:21.749Z,7.27
2023-10-23T18:43:51.061Z,7.13
2023-10-23T18:46:20.892Z,6.97
2023-10-23T18:48:49.501Z,6.87
2023-10-23T18:51:19.067Z,6.67
2023-10-23T18:53:47.785Z,7.00
2023-10-23T18:56:17.249Z,6.07
2023-10-23T18:58:47.250Z,5.83
2023-10-23T19:01:16.993Z,6.53
2023-10-23T19:03:45.134Z,6.83
2023-10-23T19:06:14.438Z,7.00
2023-10-23T19:08:44.099Z,6.60
2023-10-23T19:11:12.768Z,6.10
2023-10-23T19:13:41.390Z,5.97
2023-10-23T19:16:11.327Z,5.80
2023-10-23T19:18:42.652Z,6.43
2023-10-23T19:21:15.416Z,6.00
2023-10-23T19:23:48.266Z,6.00
2023-10-23T19:26:27.770Z,6.00
2023-10-23T19:28:58.458Z,5.50
2023-10-23T19:31:29.042Z,6.83
2023-10-23T19:34:02.845Z,4.90
2023-10-23T19:36:40.011Z,5.33
2023-10-23T19:39:09.366Z,5.60
2023-10-23T19:41:39.518Z,5.10
2023-10-23T19:44:08.656Z,5.07
2023-10-23T19:46:41.057Z,5.40
2023-10-23T19:49:09.717Z,4.80
2023-10-23T19:51:38.184Z,5.17
2023-10-23T19:54:07.428Z,5.17
2023-10-23T19:56:36.318Z,5.80
2023-10-23T19:59:04.602Z,5.40
2023-10-23T20:01:32.841Z,4.90
2023-10-23T20:04:02.563Z,4.77
2023-10-23T20:06:31.022Z,5.27
2023-10-23T20:08:59.001Z,4.97
2023-10-23T20:11:28.167Z,5.30
2023-10-23T20:29:57.878Z,5.10
2023-10-23T20:41:27.249Z,4.70
2023-10-23T20:44:00.019Z,4.93
2023-10-23T20:46:32.600Z,4.40
2023-10-23T20:49:09.924Z,4.23
2023-10-23T20:51:38.247Z,5.00
2023-10-23T20:54:10.728Z,4.73
2023-10-23T20:56:40.596Z,4.50
2023-10-23T20:59:09.937Z,4.03
2023-10-23T21:01:39.566Z,4.33
2023-10-23T21:04:08.103Z,4.90
2023-10-23T21:06:40.981Z,4.40
2023-10-23T21:09:09.128Z,4.60
2023-10-23T21:11:37.631Z,4.70
2023-10-23T21:14:05.747Z,4.37
2023-10-23T21:16:33.901Z,4.17
2023-10-23T21:19:04.202Z,4.53
2023-10-23T21:21:32.339Z,4.10
2023-10-23T21:24:00.425Z,4.00
2023-10-23T21:26:28.522Z,4.20
2023-10-23T21:28:56.811Z,4.10
2023-10-23T21:31:25.010Z,4.67
2023-10-23T21:33:53.146Z,4.47
2023-10-23T21:36:22.604Z,4.43
2023-10-23T21:38:50.813Z,4.37
2023-10-23T21:41:19.480Z,4.40
2023-10-23T21:43:47.743Z,4.50
2023-10-23T21:46:17.732Z,4.30
2023-10-23T21:48:46.114Z,4.33
2023-10-23T21:51:14.791Z,4.10
2023-10-23T21:53:44.911Z,3.80
2023-10-23T21:56:18.192Z,4.33
2023-10-23T21:59:10.448Z,3.67
2023-10-23T22:01:39.785Z,4.07
2023-10-23T22:04:09.281Z,4.40
2023-10-23T22:06:37.930Z,4.00
2023-10-23T22:09:08.671Z,3.73
2023-10-23T22:11:38.264Z,3.63
2023-10-23T22:14:07.415Z,4.00
2023-10-23T22:16:35.373Z,3.77
2023-10-23T22:19:03.290Z,3.80
2023-10-23T22:21:31.046Z,4.07
2023-10-23T22:23:58.801Z,4.10
2023-10-23T22:26:27.881Z,3.80
2023-10-23T22:28:55.881Z,3.77
2023-10-23T22:31:23.918Z,3.43
2023-10-23T22:33:51.899Z,4.00
2023-10-23T22:36:19.911Z,3.97
2023-10-23T22:38:47.885Z,3.80
2023-10-23T22:41:16.211Z,3.63
2023-10-23T22:43:45.510Z,3.53
2023-10-23T22:46:13.454Z,4.40
2023-10-23T22:48:42.013Z,3.23
2023-10-23T22:51:09.214Z,3.90
2023-10-23T22:53:38.338Z,4.07
2023-10-23T22:56:06.793Z,3.80
2023-10-23T22:58:34.933Z,3.77
2023-10-23T23:01:08.953Z,3.43
2023-10-23T23:03:37.753Z,3.80
2023-10-23T23:06:07.582Z,3.40
2023-10-23T23:08:40.088Z,3.87
2023-10-23T23:11:08.627Z,3.60
2023-10-23T23:13:37.184Z,4.10
2023-10-23T23:16:06.681Z,3.47
2023-10-23T23:18:39.452Z,3.17
2023-10-23T23:21:08.979Z,3.50
2023-10-23T23:23:37.021Z,3.50
2023-10-23T23:26:04.957Z,3.70
2023-10-23T23:28:33.150Z,3.80
2023-10-23T23:31:01.128Z,3.60
2023-10-23T23:33:30.207Z,3.27
2023-10-23T23:36:01.290Z,3.23
2023-10-23T23:38:29.026Z,3.10
2023-10-23T23:40:56.764Z,2.83
2023-10-23T23:43:24.635Z,3.43
2023-10-23T23:45:52.857Z,3.50
2023-10-23T23:48:21.203Z,2.80
2023-10-23T23:50:49.715Z,3.50
2023-10-23T23:53:19.256Z,3.50
2023-10-23T23:55:47.198Z,3.20
2023-10-23T23:58:15.950Z,3.43
